Skip to main content.

Nearby METAR Reports

 

KJYR - York, Nebraska, USA
Distance from station: NW 27mi, 43km
Updated: Tue, 28-Jun-2022 6:15am CDT
Clear
Clear
 Wind from SW
Wind: SW 6 mph , 9 km/h
Temperature: 54°F , 12°C
Dew Point: 50°F , 10°C
Humidity: 88%
Barometer: 30.22 inHg , 1023.4 hPa
Clouds: Clear
Visibility: 10 miles , 16 km
2022/06/28 11:15 KJYR 281115Z AUTO 22005KT 10SM CLR 12/10 A3022 RMK AO2
KLNK - Lincoln, Nebraska, USA
Distance from station: ENE 27mi, 44km
Updated: Tue, 28-Jun-2022 5:54am CDT
Clear
Clear
 Wind from S
Wind: S 7 mph , 11 km/h
Temperature: 55°F , 13°C
Dew Point: 52°F , 11°C
Humidity: 88%
Barometer: 30.22 inHg , 1023.4 hPa
Clouds: Clear
Visibility: 10 miles , 16 km
2022/06/28 10:54 KLNK 281054Z 17006KT 10SM CLR 13/11 A3022 RMK AO2 SLP228 T01330106
 
KBIE - Beatrice Municip, Nebraska, USA
Distance from station: SE 36mi, 58km
Updated: Tue, 28-Jun-2022 6:15am CDT
Clear
Clear
 
Temperature: 57°F , 14°C
Dew Point: 52°F , 11°C
Humidity: 82%
Barometer: 30.24 inHg , 1024 hPa
Clouds: Clear
Visibility: 10 miles , 16 km
2022/06/28 11:15 KBIE 281115Z 10SM CLR 14/11 A3024 RMK AO2 T01370110
KHJH - Hebron Muni, Nebraska, USA
Distance from station: SSW 40mi, 64km
Updated: Tue, 28-Jun-2022 6:15am CDT
Clear
Clear
 Wind from SW
Wind: SW 5 mph , 7 km/h
Temperature: 57°F , 14°C
Dew Point: 50°F , 10°C
Humidity: 77%
Barometer: 30.24 inHg , 1024 hPa
Clouds: Clear
Visibility: 10 miles , 16 km
2022/06/28 11:15 KHJH 281115Z AUTO 22004KT 10SM CLR 14/10 A3024 RMK AO2 T01380104
 
KAUH - Aurora, Nebraska, USA
Distance from station: WNW 44mi, 70km
Updated: Tue, 28-Jun-2022 6:15am CDT
Clear
Clear
 Wind from SSW
Wind: SSW 8 mph , 13 km/h
Temperature: 57°F , 14°C
Dew Point: 52°F , 11°C
Humidity: 82%
Barometer: 30.21 inHg , 1023 hPa
Clouds: Clear
Visibility: 10 miles , 16 km
2022/06/28 11:15 KAUH 281115Z AUTO 21007KT 10SM CLR 14/11 A3021 RMK AO2 T01350106
KAHQ - Wahoo, Nebraska, USA
Distance from station: NE 51mi, 82km
Updated: Tue, 28-Jun-2022 6:15am CDT
Clear
Clear
 Wind from SSE
Wind: SSE 5 mph , 7 km/h
Temperature: 55°F , 13°C
Dew Point: 55°F , 13°C
Humidity: 100%
Barometer: 30.21 inHg , 1023 hPa
Clouds: Clear
Visibility: 10 miles , 16 km
2022/06/28 11:15 KAHQ 281115Z AUTO 16004KT 10SM CLR 13/13 A3021 RMK AO2 T01320132
 
KOLU - Columbus Muni, Nebraska, USA
Distance from station: N 55mi, 88km
Updated: Tue, 28-Jun-2022 5:56am CDT
Clear
Clear
 Wind from SW
Wind: SW 5 mph , 7 km/h
Temperature: 59°F , 15°C
Dew Point: 52°F , 11°C
Humidity: 77%
Barometer: 30.21 inHg , 1023 hPa
Clouds: Clear
Visibility: 10 miles , 16 km
2022/06/28 10:56 KOLU 281056Z AUTO 23004KT 10SM CLR 15/11 A3021 RMK AO2 SLP225 T01500111
KGRI - Grand Island, Nebraska, USA
Distance from station: WNW 61mi, 99km
Updated: Tue, 28-Jun-2022 5:53am CDT
Clear
Clear
 Wind from SW
Wind: SW 9 mph , 15 km/h
Temperature: 59°F , 15°C
Dew Point: 48°F , 9°C
Humidity: 68%
Barometer: 30.21 inHg , 1023 hPa
Clouds: Clear
Visibility: 10 miles , 16 km
2022/06/28 10:53 KGRI 281053Z AUTO 22008KT 10SM CLR 15/09 A3021 RMK AO2 SLP221 T01500089
 
KHSI - Hastings, Nebraska, USA
Distance from station: W 64mi, 103km
Updated: Tue, 28-Jun-2022 3:53am CDT
NOT Current
Clear
Clear
 Wind from SSW
Wind: SSW 6 mph , 9 km/h
Temperature: 55°F , 13°C
Dew Point: 48°F , 9°C
Humidity: 77%
Barometer: 30.25 inHg , 1024.4 hPa
Clouds: Clear
Visibility: 10 miles , 16 km
2022/06/28 08:53 KHSI 280853Z AUTO 20005KT 10SM CLR 13/09 A3025 RMK AO2 SLP232 T01330094 50001
KFET - Fremont Muni Arp, Nebraska, USA
Distance from station: NNE 66mi, 106km
Updated: Tue, 28-Jun-2022 6:15am CDT
Mostly Cloudy
Mostly Cloudy
 Wind from calm
Wind: Calm
Temperature: 63°F , 17°C
Dew Point: 54°F , 12°C
Humidity: 73%
Barometer: 30.21 inHg , 1023 hPa
Clouds: Mostly Cloudy
Visibility: 10 miles , 16 km
Cloud details: Mostly Cloudy 12000 ft
2022/06/28 11:15 KFET 281115Z AUTO 00000KT 10SM BKN120 17/12 A3021 RMK AO2 T01710120
 
KMLE - Omaha/Millard, Nebraska, USA
Distance from station: NE 69mi, 110km
Updated: Tue, 28-Jun-2022 6:15am CDT
Partly Cloudy
Partly Cloudy
 Wind from S
Wind: S 3 mph , 6 km/h
Temperature: 63°F , 17°C
Dew Point: 54°F , 12°C
Humidity: 73%
Barometer: 30.22 inHg , 1023.4 hPa
Clouds: Partly Cloudy
Visibility: 10 miles , 16 km
Cloud details: Partly Cloudy 12000 ft
2022/06/28 11:15 KMLE 281115Z AUTO 17003KT 10SM SCT120 17/12 A3022 RMK AO2 T01650121
KPMV - Plattsmouth Muni, Nebraska, USA
Distance from station: ENE 71mi, 114km
Updated: Tue, 28-Jun-2022 6:15am CDT
Clear
Clear
 Wind from S
Wind: S 6 mph , 9 km/h
Temperature: 59°F , 15°C
Dew Point: 54°F , 12°C
Humidity: 82%
Barometer: 30.23 inHg , 1023.7 hPa
Clouds: Clear
Visibility: 10 miles , 16 km
2022/06/28 11:15 KPMV 281115Z AUTO 18005KT 10SM CLR 15/12 A3023 RMK AO2 T01450119
 
KAFK - Nebraska City, Nebraska, USA
Distance from station: E 72mi, 116km
Updated: Tue, 28-Jun-2022 6:15am CDT
Clear
Clear
 Wind from SW
Wind: SW 6 mph , 9 km/h
Temperature: 59°F , 15°C
Dew Point: 54°F , 12°C
Humidity: 82%
Barometer: 30.24 inHg , 1024 hPa
Clouds: Clear
Visibility: 10 miles , 16 km
2022/06/28 11:15 KAFK 281115Z AUTO 23005KT 10SM CLR 15/12 A3024 RMK AO2 T01500120
KOFF - Offutt Afb/Belle, Nebraska, USA
Distance from station: ENE 75mi, 121km
Updated: Tue, 28-Jun-2022 5:56am CDT
Clear
Clear
 Wind from SSE
Wind: SSE 5 mph , 7 km/h
Temperature: 61°F , 16°C
Dew Point: 52°F , 11°C
Humidity: 72%
Barometer: 30.24 inHg , 1024 hPa
Clouds: Clear
Visibility: 10 miles , 16 km
2022/06/28 10:56 KOFF 281056Z 15004KT 10SM CLR 16/11 A3024 RMK AO2A SLP239 T01600105 PWINO PNO FZRANO TSNO VISNO RWY12 CHINO RWY12 $
 
KBTA - Blair Muni, Nebraska, USA
Distance from station: NE 78mi, 125km
Updated: Tue, 28-Jun-2022 6:15am CDT
Clear
Clear
 Wind from S
Wind: S 3 mph , 6 km/h
Temperature: 61°F , 16°C
Dew Point: 54°F , 12°C
Humidity: 77%
Barometer: 30.21 inHg , 1023 hPa
Clouds: Clear
Visibility: 10 miles , 16 km
2022/06/28 11:15 KBTA 281115Z AUTO 17003KT 10SM CLR 16/12 A3021 RMK AO2 T01560117
KCNK - Concordia, Kansas, USA
Distance from station: SSW 80mi, 129km
Updated: Tue, 28-Jun-2022 5:55am CDT
Clear
Clear
 Wind from SW
Wind: SW 9 mph , 15 km/h
Temperature: 59°F , 15°C
Dew Point: 52°F , 11°C
Humidity: 77%
Barometer: 30.26 inHg , 1024.7 hPa
Clouds: Clear
Visibility: 10 miles , 16 km
2022/06/28 10:55 KCNK 281055Z AUTO 22008KT 10SM CLR 15/11 A3026 RMK AO2 SLP235 T01500106
 
KOMA - Omaha/Eppley, Nebraska, USA
Distance from station: NE 82mi, 133km
Updated: Tue, 28-Jun-2022 5:52am CDT
Partly Cloudy
Partly Cloudy
 Wind from SSE
Wind: SSE 8 mph , 13 km/h
Temperature: 63°F , 17°C
Dew Point: 52°F , 11°C
Humidity: 68%
Barometer: 30.21 inHg , 1023 hPa
Clouds: Partly Cloudy
Visibility: 10 miles , 16 km
Cloud details: Partly Cloudy 12000 ft
2022/06/28 10:52 KOMA 281052Z 16007KT 10SM SCT120 17/11 A3021 RMK AO2 SLP224 T01720111
KBVN - Albion Muni, Nebraska, USA
Distance from station: NNW 86mi, 138km
Updated: Tue, 28-Jun-2022 6:15am CDT
Clear
Clear
 
Temperature: 55°F , 13°C
Dew Point: 50°F , 10°C
Humidity: 82%
Barometer: 30.17 inHg , 1021.7 hPa
Clouds: Clear
Visibility: 10 miles , 16 km
2022/06/28 11:15 KBVN 281115Z 10SM CLR 13/10 A3017 RMK AO2 T01320100
 
KCBF - Council Bluffs, Iowa, USA
Distance from station: ENE 87mi, 139km
Updated: Tue, 28-Jun-2022 6:15am CDT
Few Clouds
Few Clouds
 Wind from SSW
Wind: SSW 10 mph , 17 km/h
Temperature: 63°F , 17°C
Dew Point: 50°F , 10°C
Humidity: 64%
Barometer: 30.21 inHg , 1023 hPa
Clouds: Few Clouds
Visibility: 10 miles , 16 km
Cloud details: Few Clouds 11000 ft
2022/06/28 11:15 KCBF 281115Z AUTO 21009KT 10SM FEW110 17/10 A3021 RMK AO2
KOFK - Norfolk, Nebraska, USA
Distance from station: N 92mi, 148km
Updated: Tue, 28-Jun-2022 5:56am CDT
Clear
Clear
 Wind from S
Wind: S 10 mph , 17 km/h
Temperature: 61°F , 16°C
Dew Point: 48°F , 9°C
Humidity: 63%
Barometer: 30.16 inHg , 1021.3 hPa
Clouds: Clear
Visibility: 10 miles , 16 km
2022/06/28 10:56 KOFK 281056Z AUTO 18009KT 10SM CLR 16/09 A3016 RMK AO2 SLP202 T01560089

Metar display script from Saratoga-Weather.org